sensor_id;sensor_type;location;lat;lon;timestamp;pressure;altitude;pressure_sealevel;temperature;humidity
26531;BME280;14201;43.188;24.160;2022-09-19T00:01:19;99644.66;;;11.20;67.38
26531;BME280;14201;43.188;24.160;2022-09-19T00:03:51;99638.88;;;11.27;66.61
26531;BME280;14201;43.188;24.160;2022-09-19T00:06:17;99640.59;;;11.27;66.45
26531;BME280;14201;43.188;24.160;2022-09-19T00:08:45;99640.81;;;11.33;65.99
26531;BME280;14201;43.188;24.160;2022-09-19T00:11:12;99637.34;;;11.32;66.69
26531;BME280;14201;43.188;24.160;2022-09-19T00:13:39;99641.47;;;11.27;66.68
26531;BME280;14201;43.188;24.160;2022-09-19T00:16:38;99637.06;;;11.26;66.74
26531;BME280;14201;43.188;24.160;2022-09-19T00:19:06;99628.50;;;11.29;65.79
26531;BME280;14201;43.188;24.160;2022-09-19T00:21:35;99636.31;;;11.29;66.28
26531;BME280;14201;43.188;24.160;2022-09-19T00:24:01;99622.63;;;11.34;65.73
26531;BME280;14201;43.188;24.160;2022-09-19T00:26:46;99619.19;;;11.35;65.14
26531;BME280;14201;43.188;24.160;2022-09-19T00:29:16;99625.91;;;11.29;65.69
26531;BME280;14201;43.188;24.160;2022-09-19T00:31:44;99630.16;;;11.27;65.68
26531;BME280;14201;43.188;24.160;2022-09-19T00:34:11;99633.34;;;11.19;66.46
26531;BME280;14201;43.188;24.160;2022-09-19T00:36:38;99627.50;;;11.25;66.18
26531;BME280;14201;43.188;24.160;2022-09-19T00:39:06;99629.16;;;11.23;66.06
26531;BME280;14201;43.188;24.160;2022-09-19T00:41:32;99619.53;;;11.22;66.28
26531;BME280;14201;43.188;24.160;2022-09-19T00:44:06;99621.44;;;11.26;65.55
26531;BME280;14201;43.188;24.160;2022-09-19T00:46:50;99622.38;;;11.28;65.46
26531;BME280;14201;43.188;24.160;2022-09-19T00:49:17;99612.00;;;11.30;66.50
26531;BME280;14201;43.188;24.160;2022-09-19T00:51:49;99618.81;;;11.26;66.18
26531;BME280;14201;43.188;24.160;2022-09-19T00:54:20;99624.03;;;11.26;66.28
26531;BME280;14201;43.188;24.160;2022-09-19T00:56:51;99617.84;;;11.22;66.01
26531;BME280;14201;43.188;24.160;2022-09-19T00:59:18;99621.25;;;11.21;65.81
26531;BME280;14201;43.188;24.160;2022-09-19T01:01:46;99620.75;;;11.30;65.73
26531;BME280;14201;43.188;24.160;2022-09-19T01:04:19;99618.81;;;11.26;66.41
26531;BME280;14201;43.188;24.160;2022-09-19T01:09:42;99619.00;;;11.31;65.76
26531;BME280;14201;43.188;24.160;2022-09-19T01:17:51;99621.06;;;10.73;67.39
26531;BME280;14201;43.188;24.160;2022-09-19T01:23:44;99607.84;;;10.48;69.21
26531;BME280;14201;43.188;24.160;2022-09-19T01:29:18;99604.63;;;9.93;71.14
26531;BME280;14201;43.188;24.160;2022-09-19T01:31:49;99604.00;;;9.79;72.15
26531;BME280;14201;43.188;24.160;2022-09-19T01:34:23;99601.53;;;9.63;72.79
26531;BME280;14201;43.188;24.160;2022-09-19T01:37:04;99613.44;;;9.58;73.51
26531;BME280;14201;43.188;24.160;2022-09-19T01:39:36;99614.41;;;9.60;72.99
26531;BME280;14201;43.188;24.160;2022-09-19T01:42:03;99597.97;;;9.61;72.27
26531;BME280;14201;43.188;24.160;2022-09-19T01:44:30;99612.84;;;9.63;71.99
26531;BME280;14201;43.188;24.160;2022-09-19T01:49:50;99616.44;;;9.67;72.59
26531;BME280;14201;43.188;24.160;2022-09-19T01:57:46;99607.34;;;9.57;73.18
26531;BME280;14201;43.188;24.160;2022-09-19T02:00:19;99612.19;;;9.50;73.34
26531;BME280;14201;43.188;24.160;2022-09-19T02:08:22;99619.66;;;9.61;73.34
26531;BME280;14201;43.188;24.160;2022-09-19T02:11:20;99612.53;;;9.57;73.32
26531;BME280;14201;43.188;24.160;2022-09-19T02:13:51;99613.84;;;9.67;73.30
26531;BME280;14201;43.188;24.160;2022-09-19T02:16:56;99609.75;;;9.92;72.26
26531;BME280;14201;43.188;24.160;2022-09-19T02:19:31;99605.66;;;9.97;71.36
26531;BME280;14201;43.188;24.160;2022-09-19T02:22:03;99602.91;;;9.94;71.44
26531;BME280;14201;43.188;24.160;2022-09-19T02:24:33;99595.63;;;9.86;71.37
26531;BME280;14201;43.188;24.160;2022-09-19T02:27:16;99595.72;;;9.88;71.65
26531;BME280;14201;43.188;24.160;2022-09-19T02:29:52;99585.19;;;9.85;71.33
26531;BME280;14201;43.188;24.160;2022-09-19T02:32:19;99585.44;;;9.91;71.51
26531;BME280;14201;43.188;24.160;2022-09-19T02:34:47;99584.44;;;9.88;71.44
26531;BME280;14201;43.188;24.160;2022-09-19T02:37:16;99583.41;;;9.84;71.24
26531;BME280;14201;43.188;24.160;2022-09-19T02:40:32;99581.97;;;9.91;70.97
26531;BME280;14201;43.188;24.160;2022-09-19T02:43:04;99576.13;;;9.96;70.63
26531;BME280;14201;43.188;24.160;2022-09-19T02:45:41;99573.81;;;10.02;70.46
26531;BME280;14201;43.188;24.160;2022-09-19T02:53:28;99571.41;;;9.88;71.84
26531;BME280;14201;43.188;24.160;2022-09-19T02:56:00;99572.66;;;9.76;71.35
26531;BME280;14201;43.188;24.160;2022-09-19T02:58:29;99578.34;;;9.68;72.17
26531;BME280;14201;43.188;24.160;2022-09-19T03:01:02;99579.75;;;9.61;72.46
26531;BME280;14201;43.188;24.160;2022-09-19T03:03:34;99575.06;;;9.72;72.59
26531;BME280;14201;43.188;24.160;2022-09-19T03:06:23;99574.91;;;9.69;72.81
26531;BME280;14201;43.188;24.160;2022-09-19T03:08:51;99579.50;;;9.74;72.92
26531;BME280;14201;43.188;24.160;2022-09-19T03:11:20;99575.59;;;9.84;72.59
26531;BME280;14201;43.188;24.160;2022-09-19T03:13:47;99582.72;;;9.88;71.86
26531;BME280;14201;43.188;24.160;2022-09-19T03:16:25;99574.28;;;9.74;72.80
26531;BME280;14201;43.188;24.160;2022-09-19T03:18:53;99582.25;;;9.58;72.84
26531;BME280;14201;43.188;24.160;2022-09-19T03:21:22;99576.41;;;9.44;73.88
26531;BME280;14201;43.188;24.160;2022-09-19T03:23:50;99577.63;;;9.33;74.25
26531;BME280;14201;43.188;24.160;2022-09-19T03:26:20;99578.59;;;9.35;74.52
26531;BME280;14201;43.188;24.160;2022-09-19T03:28:46;99574.22;;;9.53;73.85
26531;BME280;14201;43.188;24.160;2022-09-19T03:31:11;99572.31;;;9.69;73.16
26531;BME280;14201;43.188;24.160;2022-09-19T03:33:38;99571.88;;;9.79;72.53
26531;BME280;14201;43.188;24.160;2022-09-19T03:36:07;99573.75;;;9.81;71.83
26531;BME280;14201;43.188;24.160;2022-09-19T03:38:38;99576.44;;;9.83;71.71
26531;BME280;14201;43.188;24.160;2022-09-19T03:41:08;99572.81;;;9.79;71.25
26531;BME280;14201;43.188;24.160;2022-09-19T03:43:34;99568.63;;;9.83;71.07
26531;BME280;14201;43.188;24.160;2022-09-19T03:45:59;99570.88;;;9.75;71.85
26531;BME280;14201;43.188;24.160;2022-09-19T03:48:25;99559.72;;;9.78;70.86
26531;BME280;14201;43.188;24.160;2022-09-19T03:50:52;99567.09;;;9.69;71.20
26531;BME280;14201;43.188;24.160;2022-09-19T03:53:19;99572.38;;;9.70;71.42
26531;BME280;14201;43.188;24.160;2022-09-19T03:55:46;99572.22;;;9.67;71.71
26531;BME280;14201;43.188;24.160;2022-09-19T03:58:14;99572.22;;;9.67;72.08
26531;BME280;14201;43.188;24.160;2022-09-19T04:00:41;99571.28;;;9.65;71.91
26531;BME280;14201;43.188;24.160;2022-09-19T04:03:07;99572.94;;;9.63;71.37
26531;BME280;14201;43.188;24.160;2022-09-19T04:05:33;99567.31;;;9.54;71.70
26531;BME280;14201;43.188;24.160;2022-09-19T04:07:58;99567.03;;;9.48;72.37
26531;BME280;14201;43.188;24.160;2022-09-19T04:10:25;99550.81;;;9.34;72.35
26531;BME280;14201;43.188;24.160;2022-09-19T04:12:52;99575.59;;;9.45;72.09
26531;BME280;14201;43.188;24.160;2022-09-19T04:15:18;99555.94;;;9.32;71.77
26531;BME280;14201;43.188;24.160;2022-09-19T04:17:44;99577.06;;;9.40;72.25
26531;BME280;14201;43.188;24.160;2022-09-19T04:20:11;99575.03;;;9.33;72.56
26531;BME280;14201;43.188;24.160;2022-09-19T04:22:37;99579.56;;;9.37;72.74
26531;BME280;14201;43.188;24.160;2022-09-19T04:25:05;99583.19;;;9.40;72.75
26531;BME280;14201;43.188;24.160;2022-09-19T04:27:31;99582.59;;;9.46;72.54
26531;BME280;14201;43.188;24.160;2022-09-19T04:29:57;99572.31;;;9.49;72.54
26531;BME280;14201;43.188;24.160;2022-09-19T04:32:24;99587.38;;;9.56;72.24
26531;BME280;14201;43.188;24.160;2022-09-19T04:34:50;99572.13;;;9.64;72.11
26531;BME280;14201;43.188;24.160;2022-09-19T04:37:15;99574.56;;;9.80;71.58
26531;BME280;14201;43.188;24.160;2022-09-19T04:39:41;99571.31;;;10.05;70.61
26531;BME280;14201;43.188;24.160;2022-09-19T04:42:07;99567.00;;;10.25;70.15
26531;BME280;14201;43.188;24.160;2022-09-19T04:44:33;99563.00;;;10.34;69.78
26531;BME280;14201;43.188;24.160;2022-09-19T04:46:59;99568.88;;;10.49;69.37
26531;BME280;14201;43.188;24.160;2022-09-19T04:49:25;99566.56;;;10.78;68.79
26531;BME280;14201;43.188;24.160;2022-09-19T04:52:02;99561.75;;;10.89;68.28
26531;BME280;14201;43.188;24.160;2022-09-19T04:54:28;99567.03;;;10.90;68.04
26531;BME280;14201;43.188;24.160;2022-09-19T04:56:53;99556.72;;;10.93;67.69
26531;BME280;14201;43.188;24.160;2022-09-19T04:59:20;99566.16;;;11.12;69.00
26531;BME280;14201;43.188;24.160;2022-09-19T05:01:45;99562.28;;;11.48;67.59
26531;BME280;14201;43.188;24.160;2022-09-19T05:04:12;99566.06;;;11.56;66.98
26531;BME280;14201;43.188;24.160;2022-09-19T05:06:40;99566.13;;;11.81;67.31
26531;BME280;14201;43.188;24.160;2022-09-19T05:09:06;99567.19;;;11.87;67.12
26531;BME280;14201;43.188;24.160;2022-09-19T05:11:31;99562.44;;;11.99;66.26
26531;BME280;14201;43.188;24.160;2022-09-19T05:13:58;99569.16;;;11.92;66.19
26531;BME280;14201;43.188;24.160;2022-09-19T05:16:24;99566.00;;;12.27;65.92
26531;BME280;14201;43.188;24.160;2022-09-19T05:18:49;99560.66;;;12.49;65.34
26531;BME280;14201;43.188;24.160;2022-09-19T05:21:15;99557.19;;;12.50;65.92
26531;BME280;14201;43.188;24.160;2022-09-19T05:23:41;99564.28;;;12.80;66.09
26531;BME280;14201;43.188;24.160;2022-09-19T05:26:09;99560.47;;;12.97;65.54
26531;BME280;14201;43.188;24.160;2022-09-19T05:28:36;99560.56;;;13.29;65.44
26531;BME280;14201;43.188;24.160;2022-09-19T05:31:02;99552.63;;;13.26;63.51
26531;BME280;14201;43.188;24.160;2022-09-19T05:33:31;99548.81;;;13.44;64.20
26531;BME280;14201;43.188;24.160;2022-09-19T05:35:59;99549.91;;;13.52;63.37
26531;BME280;14201;43.188;24.160;2022-09-19T05:38:27;99553.53;;;13.57;63.05
26531;BME280;14201;43.188;24.160;2022-09-19T05:40:58;99550.91;;;13.57;63.99
26531;BME280;14201;43.188;24.160;2022-09-19T05:43:24;99540.47;;;13.89;64.52
26531;BME280;14201;43.188;24.160;2022-09-19T05:45:51;99552.50;;;14.14;62.38
26531;BME280;14201;43.188;24.160;2022-09-19T05:48:18;99551.84;;;14.23;63.49
26531;BME280;14201;43.188;24.160;2022-09-19T05:50:44;99553.06;;;14.35;62.24
26531;BME280;14201;43.188;24.160;2022-09-19T05:53:11;99551.78;;;14.54;61.93
26531;BME280;14201;43.188;24.160;2022-09-19T05:55:55;99547.75;;;14.66;60.32
26531;BME280;14201;43.188;24.160;2022-09-19T05:58:21;99558.03;;;14.96;59.42
26531;BME280;14201;43.188;24.160;2022-09-19T06:00:47;99550.25;;;14.99;57.56
26531;BME280;14201;43.188;24.160;2022-09-19T06:03:14;99552.41;;;15.17;59.83
26531;BME280;14201;43.188;24.160;2022-09-19T06:05:41;99565.19;;;15.43;56.71
26531;BME280;14201;43.188;24.160;2022-09-19T06:08:09;99561.13;;;15.55;57.98
26531;BME280;14201;43.188;24.160;2022-09-19T06:10:35;99550.13;;;15.73;54.41
26531;BME280;14201;43.188;24.160;2022-09-19T06:13:02;99559.91;;;15.81;54.62
26531;BME280;14201;43.188;24.160;2022-09-19T06:15:28;99552.22;;;15.90;55.17
26531;BME280;14201;43.188;24.160;2022-09-19T06:17:55;99557.88;;;16.11;52.00
26531;BME280;14201;43.188;24.160;2022-09-19T06:20:21;99552.81;;;16.24;54.09
26531;BME280;14201;43.188;24.160;2022-09-19T06:22:47;99561.97;;;16.44;51.03
26531;BME280;14201;43.188;24.160;2022-09-19T06:25:15;99557.06;;;16.66;51.03
26531;BME280;14201;43.188;24.160;2022-09-19T06:27:41;99555.53;;;16.80;49.28
26531;BME280;14201;43.188;24.160;2022-09-19T06:30:10;99553.09;;;16.91;49.99
26531;BME280;14201;43.188;24.160;2022-09-19T06:32:38;99550.91;;;17.20;48.98
26531;BME280;14201;43.188;24.160;2022-09-19T06:35:04;99550.31;;;17.44;48.83
26531;BME280;14201;43.188;24.160;2022-09-19T06:37:30;99540.16;;;17.72;46.52
26531;BME280;14201;43.188;24.160;2022-09-19T06:39:55;99545.81;;;18.06;46.50
26531;BME280;14201;43.188;24.160;2022-09-19T06:42:22;99545.19;;;18.33;44.98
26531;BME280;14201;43.188;24.160;2022-09-19T06:44:47;99542.91;;;18.73;46.05
26531;BME280;14201;43.188;24.160;2022-09-19T06:47:13;99551.13;;;19.13;45.17
26531;BME280;14201;43.188;24.160;2022-09-19T06:49:38;99538.81;;;19.15;42.71
26531;BME280;14201;43.188;24.160;2022-09-19T06:52:04;99550.22;;;19.06;43.74
26531;BME280;14201;43.188;24.160;2022-09-19T06:54:30;99540.59;;;19.21;43.40
26531;BME280;14201;43.188;24.160;2022-09-19T06:56:56;99547.00;;;19.67;43.53
26531;BME280;14201;43.188;24.160;2022-09-19T06:59:21;99540.94;;;19.85;41.92
26531;BME280;14201;43.188;24.160;2022-09-19T07:01:47;99538.28;;;19.84;42.49
26531;BME280;14201;43.188;24.160;2022-09-19T07:04:12;99548.91;;;20.10;42.13
26531;BME280;14201;43.188;24.160;2022-09-19T07:06:38;99541.00;;;20.39;39.77
26531;BME280;14201;43.188;24.160;2022-09-19T07:09:04;99539.25;;;20.38;39.95
26531;BME280;14201;43.188;24.160;2022-09-19T07:11:30;99534.88;;;20.62;39.91
26531;BME280;14201;43.188;24.160;2022-09-19T07:13:56;99544.59;;;20.77;40.53
26531;BME280;14201;43.188;24.160;2022-09-19T07:16:21;99534.88;;;20.77;42.34
26531;BME280;14201;43.188;24.160;2022-09-19T07:18:47;99537.50;;;21.11;40.08
26531;BME280;14201;43.188;24.160;2022-09-19T07:21:13;99531.28;;;21.17;37.11
26531;BME280;14201;43.188;24.160;2022-09-19T07:23:38;99534.84;;;21.11;36.62
26531;BME280;14201;43.188;24.160;2022-09-19T07:26:04;99533.09;;;21.02;36.51
26531;BME280;14201;43.188;24.160;2022-09-19T07:28:29;99523.41;;;20.92;34.90
26531;BME280;14201;43.188;24.160;2022-09-19T07:30:57;99529.56;;;20.90;36.48
26531;BME280;14201;43.188;24.160;2022-09-19T07:33:22;99532.19;;;21.08;36.09
26531;BME280;14201;43.188;24.160;2022-09-19T07:35:53;99523.34;;;21.21;35.42
26531;BME280;14201;43.188;24.160;2022-09-19T07:38:19;99521.44;;;21.59;36.84
26531;BME280;14201;43.188;24.160;2022-09-19T07:40:45;99520.38;;;21.98;34.73
26531;BME280;14201;43.188;24.160;2022-09-19T07:43:11;99521.13;;;22.19;32.49
26531;BME280;14201;43.188;24.160;2022-09-19T07:45:42;99530.03;;;22.06;30.95
26531;BME280;14201;43.188;24.160;2022-09-19T07:48:08;99521.16;;;22.10;31.99
26531;BME280;14201;43.188;24.160;2022-09-19T07:50:33;99515.84;;;22.14;31.47
26531;BME280;14201;43.188;24.160;2022-09-19T07:53:04;99515.84;;;22.16;33.47
26531;BME280;14201;43.188;24.160;2022-09-19T07:55:30;99505.06;;;22.40;33.25
26531;BME280;14201;43.188;24.160;2022-09-19T07:57:57;99511.13;;;22.56;30.41
26531;BME280;14201;43.188;24.160;2022-09-19T08:00:23;99508.28;;;22.78;30.25
26531;BME280;14201;43.188;24.160;2022-09-19T08:03:09;99500.78;;;23.20;30.38
26531;BME280;14201;43.188;24.160;2022-09-19T08:05:36;99503.44;;;23.18;31.01
26531;BME280;14201;43.188;24.160;2022-09-19T08:08:03;99501.78;;;23.11;29.95
26531;BME280;14201;43.188;24.160;2022-09-19T08:10:29;99500.06;;;23.04;28.04
26531;BME280;14201;43.188;24.160;2022-09-19T08:13:01;99497.06;;;23.36;27.49
26531;BME280;14201;43.188;24.160;2022-09-19T08:15:27;99484.81;;;23.91;28.56
26531;BME280;14201;43.188;24.160;2022-09-19T08:17:57;99489.34;;;24.42;29.67
26531;BME280;14201;43.188;24.160;2022-09-19T08:20:23;99490.84;;;24.60;26.66
26531;BME280;14201;43.188;24.160;2022-09-19T08:22:49;99472.88;;;24.17;25.48
26531;BME280;14201;43.188;24.160;2022-09-19T08:25:18;99474.03;;;24.02;25.79
26531;BME280;14201;43.188;24.160;2022-09-19T08:27:45;99472.34;;;23.96;27.88
26531;BME280;14201;43.188;24.160;2022-09-19T08:30:11;99463.16;;;24.17;26.46
26531;BME280;14201;43.188;24.160;2022-09-19T08:32:36;99469.41;;;24.68;27.02
26531;BME280;14201;43.188;24.160;2022-09-19T08:35:03;99461.25;;;25.24;24.79
26531;BME280;14201;43.188;24.160;2022-09-19T08:37:29;99458.09;;;25.47;25.73
26531;BME280;14201;43.188;24.160;2022-09-19T08:39:55;99455.75;;;25.73;26.60
26531;BME280;14201;43.188;24.160;2022-09-19T08:42:42;99453.38;;;24.71;26.79
26531;BME280;14201;43.188;24.160;2022-09-19T08:45:26;99455.41;;;24.01;26.40
26531;BME280;14201;43.188;24.160;2022-09-19T08:47:52;99446.38;;;24.12;24.94
26531;BME280;14201;43.188;24.160;2022-09-19T08:50:24;99452.78;;;23.99;25.20
26531;BME280;14201;43.188;24.160;2022-09-19T08:52:54;99441.25;;;23.98;24.66
26531;BME280;14201;43.188;24.160;2022-09-19T08:55:21;99448.94;;;24.17;26.24
26531;BME280;14201;43.188;24.160;2022-09-19T08:57:49;99443.91;;;24.00;24.79
26531;BME280;14201;43.188;24.160;2022-09-19T09:00:17;99440.44;;;23.93;25.68
26531;BME280;14201;43.188;24.160;2022-09-19T09:02:56;99437.38;;;24.20;25.97
26531;BME280;14201;43.188;24.160;2022-09-19T09:10:55;99432.34;;;23.37;24.79
26531;BME280;14201;43.188;24.160;2022-09-19T09:16:13;99423.63;;;23.28;25.54
26531;BME280;14201;43.188;24.160;2022-09-19T09:18:58;99419.53;;;23.67;26.11
26531;BME280;14201;43.188;24.160;2022-09-19T09:23:59;99414.78;;;23.89;24.48
26531;BME280;14201;43.188;24.160;2022-09-19T09:26:29;99414.75;;;23.27;26.51
26531;BME280;14201;43.188;24.160;2022-09-19T09:29:08;99403.25;;;23.27;24.59
26531;BME280;14201;43.188;24.160;2022-09-19T09:31:40;99395.88;;;23.47;24.12
26531;BME280;14201;43.188;24.160;2022-09-19T09:34:16;99394.13;;;24.05;24.46
26531;BME280;14201;43.188;24.160;2022-09-19T09:36:50;99393.00;;;24.20;24.74
26531;BME280;14201;43.188;24.160;2022-09-19T09:42:01;99386.75;;;24.23;24.05
26531;BME280;14201;43.188;24.160;2022-09-19T09:44:41;99395.22;;;23.93;24.16
26531;BME280;14201;43.188;24.160;2022-09-19T09:47:40;99385.88;;;24.22;24.44
26531;BME280;14201;43.188;24.160;2022-09-19T09:53:19;99385.78;;;24.25;24.37
26531;BME280;14201;43.188;24.160;2022-09-19T10:01:51;99374.53;;;25.48;24.10
26531;BME280;14201;43.188;24.160;2022-09-19T10:04:46;99375.28;;;24.67;23.34
26531;BME280;14201;43.188;24.160;2022-09-19T10:09:55;99369.03;;;25.54;23.77
26531;BME280;14201;43.188;24.160;2022-09-19T10:12:51;99363.97;;;25.81;25.29
26531;BME280;14201;43.188;24.160;2022-09-19T10:15:23;99366.16;;;25.63;23.57
26531;BME280;14201;43.188;24.160;2022-09-19T10:17:57;99355.13;;;25.79;24.10
26531;BME280;14201;43.188;24.160;2022-09-19T10:20:42;99355.56;;;25.98;24.21
26531;BME280;14201;43.188;24.160;2022-09-19T10:23:23;99344.19;;;25.88;22.63
26531;BME280;14201;43.188;24.160;2022-09-19T10:25:51;99341.50;;;26.25;23.55
26531;BME280;14201;43.188;24.160;2022-09-19T10:28:30;99342.53;;;26.20;25.19
26531;BME280;14201;43.188;24.160;2022-09-19T10:30:58;99346.13;;;25.45;22.51
26531;BME280;14201;43.188;24.160;2022-09-19T10:33:27;99339.44;;;25.65;24.32
26531;BME280;14201;43.188;24.160;2022-09-19T10:36:05;99328.66;;;26.05;22.63
26531;BME280;14201;43.188;24.160;2022-09-19T10:38:56;99333.94;;;26.41;24.19
26531;BME280;14201;43.188;24.160;2022-09-19T10:41:26;99327.50;;;25.44;22.69
26531;BME280;14201;43.188;24.160;2022-09-19T10:43:58;99321.03;;;25.13;23.40
26531;BME280;14201;43.188;24.160;2022-09-19T10:46:30;99315.66;;;24.74;24.81
26531;BME280;14201;43.188;24.160;2022-09-19T10:49:03;99317.63;;;24.66;24.22
26531;BME280;14201;43.188;24.160;2022-09-19T10:51:34;99311.75;;;24.47;23.72
26531;BME280;14201;43.188;24.160;2022-09-19T10:54:08;99307.50;;;24.82;24.69
26531;BME280;14201;43.188;24.160;2022-09-19T10:56:39;99304.88;;;25.60;23.58
26531;BME280;14201;43.188;24.160;2022-09-19T10:59:17;99309.25;;;26.00;23.71
26531;BME280;14201;43.188;24.160;2022-09-19T11:02:25;99295.75;;;24.91;23.80
26531;BME280;14201;43.188;24.160;2022-09-19T11:05:02;99291.88;;;24.65;24.93
26531;BME280;14201;43.188;24.160;2022-09-19T11:07:31;99278.88;;;24.92;22.88
26531;BME280;14201;43.188;24.160;2022-09-19T11:10:00;99282.81;;;25.14;23.46
26531;BME280;14201;43.188;24.160;2022-09-19T11:12:30;99282.19;;;25.42;23.47
26531;BME280;14201;43.188;24.160;2022-09-19T11:14:57;99288.72;;;26.02;25.52
26531;BME280;14201;43.188;24.160;2022-09-19T11:17:49;99272.31;;;26.80;23.09
26531;BME280;14201;43.188;24.160;2022-09-19T11:29:26;99259.38;;;28.78;20.58
26531;BME280;14201;43.188;24.160;2022-09-19T11:43:30;99249.13;;;28.17;20.94
26531;BME280;14201;43.188;24.160;2022-09-19T11:54:29;99236.09;;;27.28;21.92
26531;BME280;14201;43.188;24.160;2022-09-19T11:57:25;99231.84;;;28.01;23.17
26531;BME280;14201;43.188;24.160;2022-09-19T12:11:16;99216.91;;;28.67;19.64
26531;BME280;14201;43.188;24.160;2022-09-19T12:13:59;99217.34;;;28.79;19.40
26531;BME280;14201;43.188;24.160;2022-09-19T12:16:51;99212.78;;;28.10;22.07
26531;BME280;14201;43.188;24.160;2022-09-19T12:19:35;99201.25;;;27.01;21.47
26531;BME280;14201;43.188;24.160;2022-09-19T12:24:43;99189.25;;;26.57;21.90
26531;BME280;14201;43.188;24.160;2022-09-19T12:27:50;99183.44;;;26.74;24.08
26531;BME280;14201;43.188;24.160;2022-09-19T12:30:19;99176.44;;;26.38;22.24
26531;BME280;14201;43.188;24.160;2022-09-19T12:35:48;99188.97;;;26.36;22.49
26531;BME280;14201;43.188;24.160;2022-09-19T12:41:18;99176.16;;;26.47;22.26
26531;BME280;14201;43.188;24.160;2022-09-19T12:44:26;99177.81;;;26.51;22.64
26531;BME280;14201;43.188;24.160;2022-09-19T12:50:17;99166.91;;;27.16;21.83
26531;BME280;14201;43.188;24.160;2022-09-19T12:53:12;99162.47;;;27.43;21.05
26531;BME280;14201;43.188;24.160;2022-09-19T12:55:53;99170.28;;;27.49;20.81
26531;BME280;14201;43.188;24.160;2022-09-19T12:58:31;99167.28;;;27.58;23.29
26531;BME280;14201;43.188;24.160;2022-09-19T13:01:09;99171.88;;;27.55;23.40
26531;BME280;14201;43.188;24.160;2022-09-19T13:03:41;99161.13;;;27.81;21.25
26531;BME280;14201;43.188;24.160;2022-09-19T13:06:21;99170.81;;;27.84;22.26
26531;BME280;14201;43.188;24.160;2022-09-19T13:09:11;99172.97;;;27.99;23.71
26531;BME280;14201;43.188;24.160;2022-09-19T13:11:45;99175.59;;;28.01;23.64
26531;BME280;14201;43.188;24.160;2022-09-19T13:14:31;99172.59;;;28.10;21.94
26531;BME280;14201;43.188;24.160;2022-09-19T13:17:02;99169.66;;;27.93;21.46
26531;BME280;14201;43.188;24.160;2022-09-19T13:19:47;99175.78;;;27.44;20.99
26531;BME280;14201;43.188;24.160;2022-09-19T13:22:52;99176.19;;;27.34;21.19
26531;BME280;14201;43.188;24.160;2022-09-19T13:25:37;99155.09;;;27.24;21.17
26531;BME280;14201;43.188;24.160;2022-09-19T13:30:49;99165.22;;;27.41;20.56
26531;BME280;14201;43.188;24.160;2022-09-19T13:33:35;99161.38;;;27.48;20.23
26531;BME280;14201;43.188;24.160;2022-09-19T13:36:12;99156.81;;;27.25;20.25
26531;BME280;14201;43.188;24.160;2022-09-19T13:38:50;99161.28;;;26.97;21.75
26531;BME280;14201;43.188;24.160;2022-09-19T13:41:24;99164.03;;;27.22;21.25
26531;BME280;14201;43.188;24.160;2022-09-19T13:44:29;99171.91;;;27.28;21.06
26531;BME280;14201;43.188;24.160;2022-09-19T13:47:24;99157.91;;;26.63;21.53
26531;BME280;14201;43.188;24.160;2022-09-19T13:50:16;99155.22;;;26.63;21.12
26531;BME280;14201;43.188;24.160;2022-09-19T13:52:47;99161.03;;;26.78;21.11
26531;BME280;14201;43.188;24.160;2022-09-19T13:55:39;99163.16;;;25.72;20.83
26531;BME280;14201;43.188;24.160;2022-09-19T13:58:32;99162.22;;;25.75;21.69
26531;BME280;14201;43.188;24.160;2022-09-19T14:03:42;99151.59;;;25.72;21.92
26531;BME280;14201;43.188;24.160;2022-09-19T14:06:29;99150.44;;;25.82;22.40
26531;BME280;14201;43.188;24.160;2022-09-19T14:09:30;99139.50;;;25.93;22.49
26531;BME280;14201;43.188;24.160;2022-09-19T14:12:00;99150.72;;;26.06;22.91
26531;BME280;14201;43.188;24.160;2022-09-19T14:17:33;99162.56;;;26.27;24.39
26531;BME280;14201;43.188;24.160;2022-09-19T14:23:07;99147.97;;;26.39;22.07
26531;BME280;14201;43.188;24.160;2022-09-19T14:25:34;99145.78;;;26.22;23.45
26531;BME280;14201;43.188;24.160;2022-09-19T14:28:04;99149.25;;;26.25;24.06
26531;BME280;14201;43.188;24.160;2022-09-19T14:30:47;99149.88;;;26.33;24.36
26531;BME280;14201;43.188;24.160;2022-09-19T14:42:52;99157.13;;;26.60;23.27
26531;BME280;14201;43.188;24.160;2022-09-19T14:50:46;99167.88;;;26.57;23.74
26531;BME280;14201;43.188;24.160;2022-09-19T14:53:23;99162.03;;;26.44;23.93
26531;BME280;14201;43.188;24.160;2022-09-19T14:56:02;99173.66;;;26.43;24.13
26531;BME280;14201;43.188;24.160;2022-09-19T14:58:33;99165.84;;;26.37;24.18
26531;BME280;14201;43.188;24.160;2022-09-19T15:03:53;99174.72;;;26.37;23.94
26531;BME280;14201;43.188;24.160;2022-09-19T15:06:33;99173.06;;;26.33;23.88
26531;BME280;14201;43.188;24.160;2022-09-19T15:09:00;99190.69;;;26.39;24.09
26531;BME280;14201;43.188;24.160;2022-09-19T15:11:27;99181.06;;;26.33;24.33
26531;BME280;14201;43.188;24.160;2022-09-19T15:13:53;99178.44;;;26.31;24.96
26531;BME280;14201;43.188;24.160;2022-09-19T15:16:21;99177.03;;;26.18;24.86
26531;BME280;14201;43.188;24.160;2022-09-19T15:18:50;99175.38;;;26.14;24.92
26531;BME280;14201;43.188;24.160;2022-09-19T15:21:20;99173.72;;;26.10;24.75
26531;BME280;14201;43.188;24.160;2022-09-19T15:23:47;99174.72;;;26.06;23.94
26531;BME280;14201;43.188;24.160;2022-09-19T15:26:19;99177.44;;;26.04;23.15
26531;BME280;14201;43.188;24.160;2022-09-19T15:32:14;99169.66;;;25.97;24.71
26531;BME280;14201;43.188;24.160;2022-09-19T15:34:42;99170.66;;;25.92;25.70
26531;BME280;14201;43.188;24.160;2022-09-19T15:37:16;99171.69;;;25.85;25.69
26531;BME280;14201;43.188;24.160;2022-09-19T15:39:42;99174.31;;;25.88;26.36
26531;BME280;14201;43.188;24.160;2022-09-19T15:42:11;99178.84;;;25.85;26.68